• Join FlightAware (Why Join?)
  • Login
  • US Flag 
10:11PM EDT


 

Airport Tracker/Info


-or-


 

Live Flight TrackerFlight Track Log ✈ AWE3268 ✈ 03-Oct-2013 ✈ KDTW - KPHL

Flight Track Log - Related Links

Times and Time Zones

All times are in EDT time to prevent confusion due to time zone crossing. See the AWE3268 flight status page for this flight to view local times or setup timezone preferences in your user account.

Time Position Orientation Groundspeed Altitude Reporting Facility
EDT Latitude Longitude Course Direction KTS MPH feet Rate Location/Type
01:36PM 42.2039 -83.3697 96° East 157 181 1,200  Level Cleveland Center
01:37PM 42.1264 -83.3672 179° South 232 267 3,800 1,620 Climbing Cleveland Center
01:38PM 42.1161 -83.3642 168° South 217 250 4,100 2,700 Climbing Cleveland Center
01:38PM 42.0636 -83.3386 160° South 277 319 6,600 2,040 Climbing Cleveland Center
01:39PM 42.0884 -82.8505 90° East  Level Estimated
01:40PM 42.0570 -82.7250 90° East  Level Estimated
01:40PM 42.1333 -83.2254 50° Northeast  Level FlightAware Approximate
01:41PM 42.0256 -82.5997 96° East  Level Estimated
01:41PM 42.1036 -83.0675 50° Northeast 329 379 10,500  Level Cleveland Center
01:42PM 42.1283 -82.9436 75° East 343 395 13,300 2,400 Climbing Cleveland Center
01:43PM 42.1536 -82.8169 75° East 353 406 15,500 2,160 Climbing Cleveland Center
01:44PM 42.1842 -82.6547 76° East 372 428 17,800 1,920 Climbing Cleveland Center
01:45PM 42.2114 -82.5119 76° East 394 453 19,500 1,680 Climbing Cleveland Center
01:46PM 42.2183 -82.3658 86° East 396 456 21,400 1,740 Climbing Cleveland Center
01:47PM 42.2075 -82.2153 95° East 404 465 23,100 1,560 Climbing Cleveland Center
01:48PM 42.1953 -82.0400 95° East 419 482 24,700 1,380 Climbing Cleveland Center
01:49PM 42.1511 -81.8950 112° Southeast 418 481 26,000 1,200 Climbing Cleveland Center
01:50PM 42.0625 -81.7881 138° Southeast 422 486 27,200 1,140 Climbing Cleveland Center
01:51PM 41.9717 -81.6836 139° Southeast 425 489 28,400 960 Climbing Cleveland Center
01:52PM 41.8786 -81.5775 140° Southeast 432 497 29,300 960 Climbing Cleveland Center
01:53PM 41.7856 -81.4700 139° Southeast 435 501 30,400 780 Climbing Cleveland Center
01:54PM 41.6942 -81.3575 137° Southeast 440 506 31,000 720 Climbing Cleveland Center
01:55PM 41.6072 -81.1933 125° Southeast 454 522 31,900 780 Climbing Cleveland Center
01:56PM 41.5336 -81.0528 125° Southeast 457 526 32,700 480 Climbing Cleveland Center
01:57PM 41.4594 -80.9133 125° Southeast 455 524 33,000 120 Climbing Cleveland Center
01:58PM 41.3842 -80.7719 125° Southeast 460 529 33,000  Level Cleveland Center
02:00PM 41.3097 -80.6328 125° Southeast 457 526 33,000  Level Cleveland Center
02:01PM 41.2342 -80.4950 126° Southeast 456 525 33,000  Level Cleveland Center
02:02PM 41.1544 -80.3475 126° Southeast 458 527 33,000  Level Cleveland Center
02:03PM 41.0808 -80.2097 125° Southeast 458 527 33,000  Level Cleveland Center
02:04PM 41.0072 -80.0733 126° Southeast 456 525 33,000  Level Cleveland Center
02:05PM 40.9325 -79.9392 126° Southeast 452 520 33,000  Level Cleveland Center
02:06PM 40.8581 -79.8056 126° Southeast 450 518 33,000  Level Cleveland Center
02:07PM 40.7494 -79.6742 137° Southeast 442 509 33,000  Level Cleveland Center
02:08PM 40.6492 -79.5856 146° Southeast 434 499 33,000  Level Cleveland Center
02:09PM 40.5572 -79.4817 139° Southeast 441 507 33,000  Level Cleveland Center
02:10PM 40.5008 -79.3336 117° Southeast 455 524 33,000  Level Cleveland Center
02:11PM 40.4419 -79.1717 115° Southeast 451 519 33,000  Level Cleveland Center
02:12PM 40.3869 -79.0225 116° Southeast 457 526 33,000  Level Cleveland Center
02:13PM 40.3322 -78.8761 116° Southeast 454 522 33,000  Level Cleveland Center
02:14PM 40.3161 -78.7122 97° East 465 535 33,000 -1,020 Level Cleveland Center
02:16PM 40.3156 -78.3389 90° East 471 542 30,000 -1,800 Descending Cleveland Center
02:17PM 40.3144 -78.1686 90° East 472 543 27,500 -2,400 Descending Cleveland Center
02:18PM 40.3133 -77.9986 90° East 473 544 25,100 -1,380 Descending Cleveland Center
02:19PM 40.3111 -77.8622 91° East 468 539 25,000 -60 Descending New York Center
02:20PM 40.3106 -77.6961 90° East 463 533 25,000 -60 Level New York Center
02:21PM 40.3081 -77.5242 91° East 463 533 24,900 -600 Descending New York Center
02:22PM 40.2903 -77.3592 98° East 463 533 23,800 -1,560 Descending New York Center
02:23PM 40.2617 -77.1986 103° East 457 526 21,800 -2,400 Descending New York Center
02:24PM 40.2372 -77.0278 101° East 443 510 19,100 -2,040 Descending New York Center
02:25PM 40.2158 -76.8789 101° East 421 484 17,800 -1,380 Descending New York Center
02:26PM 40.1944 -76.7303 101° East 414 476 16,400 -1,440 Descending New York Center
02:27PM 40.1700 -76.5922 103° East 401 461 15,000 -1,440 Descending New York Center
02:28PM 40.1492 -76.4656 102° East 396 456 13,600 -1,020 Descending New York Center
02:29PM 40.1250 -76.3117 102° East 391 450 13,000 -360 Descending New York Center
02:30PM 40.1108 -76.1719 98° East 391 450 12,900 -600 Descending New York Center
02:31PM 40.1025 -76.0331 94° East 391 450 11,900 -1,140 Descending New York Center
02:32PM 40.0953 -75.9103 94° East 379 436 10,700 -1,560 Descending New York Center
02:33PM 40.1131 -75.7922 79° East 319 367 8,800 -1,380 Descending New York Center
02:34PM 40.1156 -75.6783 88° East 305 351 8,000 -480 Descending New York Center
02:35PM 40.1200 -75.5700 87° East 300 345 7,900 -480 Descending New York Center
02:36PM 40.1222 -75.4642 88° East 300 345 7,100 -1,020 Descending New York Center
02:37PM 40.1117 -75.3606 98° East 289 333 5,900 -720 Descending New York Center
02:37PM 40.1000 -75.3000 104° East 285 328 6,000 60 Climbing Philadelphia TRACON
02:38PM 40.0500 -75.2167 128° Southeast 282 325 6,000  Level Philadelphia TRACON
02:39PM 40.0000 -75.1833 153° Southeast 208 239 6,000  Level Philadelphia TRACON
02:40PM 39.9833 -75.1167 108° East 220 253 6,000 -240 Level Philadelphia TRACON
02:41PM 40.0000 -75.0333 75° East 218 251 5,600 -960 Descending Philadelphia TRACON
02:42PM 39.9833 -74.9833 113° Southeast 210 242 4,100 -1,320 Descending Philadelphia TRACON
02:43PM 39.9333 -74.9833 180° South 194 223 3,000 -600 Descending Philadelphia TRACON
02:44PM 39.9167 -75.0500 252° West 195 224 2,900 -600 Descending Philadelphia TRACON
02:45PM 39.9000 -75.1167 252° West 185 213 1,800 -1,140 Descending Philadelphia TRACON
02:46PM 39.8833 -75.1833 252° West 152 175 700 -1,140 Descending Philadelphia TRACON